Time;durP1;ratioP1;P1;durP2;ratioP2;P2;SDS_P1;SDS_P2;PMS_P1;PMS_P2;Temp;Humidity;BMP_temperature;BMP_pressure;BME280_temperature;BME280_humidity;BME280_pressure;Samples;Min_cycle;Max_cycle;Signal;HPM_P1;HPM_P2
2020/02/07 00:00:30;;;;;;;12.7;7.3;;;;;;;;;;;;;
2020/02/07 00:02:42;;;;;;;7.7;4.9;;;;;;;;;;;;;
2020/02/07 00:05:14;;;;;;;15.4;8.8;;;;;;;;;;;;;
2020/02/07 00:07:35;;;;;;;19.4;12;;;;;;;;;;;;;
2020/02/07 00:10:00;;;;;;;19.5;12.6;;;;;;;;;;;;;
2020/02/07 00:12:31;;;;;;;19.7;12.9;;;;;;;;;;;;;
2020/02/07 00:15:16;;;;;;;21;13.1;;;;;;;;;;;;;
2020/02/07 00:17:17;;;;;;;21;12.9;;;;;;;;;;;;;
2020/02/07 00:19:42;;;;;;;28.1;17;;;;;;;;;;;;;
2020/02/07 00:22:07;;;;;;;26.5;15.9;;;;;;;;;;;;;
2020/02/07 00:24:36;;;;;;;27.7;17.2;;;;;;;;;;;;;
2020/02/07 00:26:57;;;;;;;29.6;16.3;;;;;;;;;;;;;
2020/02/07 00:29:23;;;;;;;25.4;16.1;;;;;;;;;;;;;
2020/02/07 00:31:51;;;;;;;26.4;16;;;;;;;;;;;;;
2020/02/07 00:34:17;;;;;;;27.4;16.1;;;;;;;;;;;;;
2020/02/07 00:36:40;;;;;;;25.8;15.2;;;;;;;;;;;;;
2020/02/07 00:39:12;;;;;;;25.3;15.9;;;;;;;;;;;;;
2020/02/07 00:41:34;;;;;;;24;15.6;;;;;;;;;;;;;
2020/02/07 00:43:59;;;;;;;20;11.6;;;;;;;;;;;;;
2020/02/07 00:46:22;;;;;;;12.8;7.8;;;;;;;;;;;;;
2020/02/07 00:48:50;;;;;;;10.1;5.6;;;;;;;;;;;;;
2020/02/07 00:51:16;;;;;;;8.6;5.7;;;;;;;;;;;;;
2020/02/07 00:53:39;;;;;;;7.4;4.6;;;;;;;;;;;;;
2020/02/07 00:56:10;;;;;;;5.4;3.1;;;;;;;;;;;;;
2020/02/07 00:58:36;;;;;;;7.8;4;;;;;;;;;;;;;
2020/02/07 01:00:59;;;;;;;5.7;3.5;;;;;;;;;;;;;
2020/02/07 01:03:26;;;;;;;8.8;4.6;;;;;;;;;;;;;
2020/02/07 01:05:54;;;;;;;10.8;5.7;;;;;;;;;;;;;
2020/02/07 01:08:16;;;;;;;8.1;4.5;;;;;;;;;;;;;
2020/02/07 01:10:42;;;;;;;7.7;4.9;;;;;;;;;;;;;
2020/02/07 01:13:08;;;;;;;9.1;5.3;;;;;;;;;;;;;
2020/02/07 01:15:31;;;;;;;6.5;4.7;;;;;;;;;;;;;
2020/02/07 01:17:57;;;;;;;12.4;8.1;;;;;;;;;;;;;
2020/02/07 01:20:22;;;;;;;16.4;9.9;;;;;;;;;;;;;
2020/02/07 01:22:47;;;;;;;15.9;10.3;;;;;;;;;;;;;
2020/02/07 01:26:20;;;;;;;16.9;10;;;;;;;;;;;;;
2020/02/07 01:27:46;;;;;;;17.3;10;;;;;;;;;;;;;
2020/02/07 01:30:16;;;;;;;18.1;10.3;;;;;;;;;;;;;
2020/02/07 01:32:36;;;;;;;17.8;9;;;;;;;;;;;;;
2020/02/07 01:34:56;;;;;;;14.9;9.4;;;;;;;;;;;;;
2020/02/07 01:37:19;;;;;;;13.5;8.5;;;;;;;;;;;;;
2020/02/07 01:39:45;;;;;;;13.9;8.6;;;;;;;;;;;;;
2020/02/07 01:42:12;;;;;;;14.6;8.9;;;;;;;;;;;;;
2020/02/07 01:44:37;;;;;;;11.8;7.8;;;;;;;;;;;;;
2020/02/07 01:47:00;;;;;;;12.7;7;;;;;;;;;;;;;
2020/02/07 01:49:30;;;;;;;12.6;7.3;;;;;;;;;;;;;
2020/02/07 01:55:02;;;;;;;11.1;6.2;;;;;;;;;;;;;
2020/02/07 01:56:52;;;;;;;8.7;5.8;;;;;;;;;;;;;
2020/02/07 01:59:22;;;;;;;9.9;6.6;;;;;;;;;;;;;
2020/02/07 02:02:06;;;;;;;10.2;6.5;;;;;;;;;;;;;
2020/02/07 02:06:32;;;;;;;9.3;6.4;;;;;;;;;;;;;
2020/02/07 02:08:54;;;;;;;10.4;6.3;;;;;;;;;;;;;
2020/02/07 02:11:28;;;;;;;11.5;6.8;;;;;;;;;;;;;
2020/02/07 02:15:02;;;;;;;11.1;6.9;;;;;;;;;;;;;
2020/02/07 02:17:26;;;;;;;11.2;6.5;;;;;;;;;;;;;
2020/02/07 02:19:54;;;;;;;10.9;6.8;;;;;;;;;;;;;
2020/02/07 02:22:18;;;;;;;9.5;5.8;;;;;;;;;;;;;
2020/02/07 02:24:47;;;;;;;13.5;6.2;;;;;;;;;;;;;
2020/02/07 02:27:08;;;;;;;10.4;5.9;;;;;;;;;;;;;
2020/02/07 02:29:32;;;;;;;11.2;5.6;;;;;;;;;;;;;
2020/02/07 02:31:57;;;;;;;9.4;5.6;;;;;;;;;;;;;
2020/02/07 02:34:26;;;;;;;10.9;6.6;;;;;;;;;;;;;
2020/02/07 02:36:50;;;;;;;11.9;6.8;;;;;;;;;;;;;
2020/02/07 02:39:12;;;;;;;10.7;6.2;;;;;;;;;;;;;
2020/02/07 02:41:42;;;;;;;9.6;5.7;;;;;;;;;;;;;
2020/02/07 02:46:36;;;;;;;7.3;4.8;;;;;;;;;;;;;
2020/02/07 02:49:02;;;;;;;8.1;4.8;;;;;;;;;;;;;
2020/02/07 02:51:37;;;;;;;7.7;4.7;;;;;;;;;;;;;
2020/02/07 02:54:00;;;;;;;10.5;5.6;;;;;;;;;;;;;
2020/02/07 02:56:25;;;;;;;9.2;5.5;;;;;;;;;;;;;
2020/02/07 02:58:52;;;;;;;10.6;5.4;;;;;;;;;;;;;
2020/02/07 03:01:16;;;;;;;10.7;5.8;;;;;;;;;;;;;
2020/02/07 03:03:42;;;;;;;9.5;5.7;;;;;;;;;;;;;
2020/02/07 03:06:09;;;;;;;9.6;5.4;;;;;;;;;;;;;
2020/02/07 03:08:35;;;;;;;9.9;5.6;;;;;;;;;;;;;
2020/02/07 03:11:01;;;;;;;13;5.5;;;;;;;;;;;;;
2020/02/07 03:13:23;;;;;;;10.3;5.4;;;;;;;;;;;;;
2020/02/07 03:15:47;;;;;;;9.1;5.6;;;;;;;;;;;;;
2020/02/07 03:18:15;;;;;;;9.9;5.4;;;;;;;;;;;;;
2020/02/07 03:20:40;;;;;;;9.9;5.7;;;;;;;;;;;;;
2020/02/07 03:23:11;;;;;;;9;5.1;;;;;;;;;;;;;
2020/02/07 03:25:44;;;;;;;8.9;5.2;;;;;;;;;;;;;
2020/02/07 03:28:14;;;;;;;9.8;5.2;;;;;;;;;;;;;
2020/02/07 03:30:45;;;;;;;10.3;5.3;;;;;;;;;;;;;
2020/02/07 03:33:14;;;;;;;11.9;4.8;;;;;;;;;;;;;
2020/02/07 03:38:18;;;;;;;7.1;3.3;;;;;;;;;;;;;
2020/02/07 03:40:41;;;;;;;6.6;3.2;;;;;;;;;;;;;
2020/02/07 03:43:17;;;;;;;5.1;2.6;;;;;;;;;;;;;
2020/02/07 03:45:48;;;;;;;5.2;3;;;;;;;;;;;;;
2020/02/07 03:48:21;;;;;;;5;2.6;;;;;;;;;;;;;
2020/02/07 03:50:45;;;;;;;5;2.8;;;;;;;;;;;;;
2020/02/07 03:53:17;;;;;;;7.8;3.5;;;;;;;;;;;;;
2020/02/07 03:55:49;;;;;;;11.2;4.2;;;;;;;;;;;;;
2020/02/07 03:58:13;;;;;;;15.6;5.4;;;;;;;;;;;;;
2020/02/07 04:02:42;;;;;;;10.7;5.3;;;;;;;-3.68;79.68164;948.3809;;;;
2020/02/07 04:05:20;;;;;;;8.8;5;;;;;;;-3.9;80.88574;948.4071;;;;
2020/02/07 04:08:02;;;;;;;10.8;5.8;;;;;;;-4.13;82.55176;948.383;;;;
2020/02/07 04:13:01;;;;;;;6.4;3.9;;;;;;;-4.27;82.35938;948.312;;;;
2020/02/07 04:17:13;;;;;;;7.4;4.2;;;;;;;-4.26;81.86426;948.3797;;;;
2020/02/07 04:18:03;;;;;;;5.9;3.5;;;;;;;-4.23;82.13477;948.3153;;;;
2020/02/07 04:20:35;;;;;;;6.1;3;;;;;;;-4.12;81.90234;948.2584;;;;
2020/02/07 04:23:05;;;;;;;7.8;3.6;;;;;;;-3.93;81.32129;948.264;;;;
2020/02/07 04:25:33;;;;;;;6.6;3.5;;;;;;;-3.94;81.0459;948.2275;;;;
2020/02/07 04:28:15;;;;;;;5;3.1;;;;;;;-3.69;80.3418;948.1624;;;;
2020/02/07 04:30:51;;;;;;;6.5;3.4;;;;;;;-3.55;79.19727;948.1333;;;;
2020/02/07 04:33:30;;;;;;;7.3;3.6;;;;;;;-3.62;79.0752;948.1191;;;;
2020/02/07 04:36:12;;;;;;;6;3.7;;;;;;;-3.59;78.74707;948.0653;;;;
2020/02/07 04:38:39;;;;;;;6.9;3.6;;;;;;;-3.63;78.74023;948.0665;;;;
2020/02/07 04:41:21;;;;;;;7.6;3.7;;;;;;;-3.7;78.77051;947.9944;;;;
2020/02/07 04:43:53;;;;;;;7.3;3.7;;;;;;;-3.92;79.44727;947.8998;;;;
2020/02/07 04:46:24;;;;;;;5.2;3.5;;;;;;;-4.15;80.31934;947.783;;;;
2020/02/07 04:48:58;;;;;;;6.5;3.1;;;;;;;-4.17;81.11035;947.769;;;;
2020/02/07 04:51:41;;;;;;;8.3;5.4;;;;;;;-3.95;81.0293;947.8624;;;;
2020/02/07 04:54:15;;;;;;;6;3.8;;;;;;;-3.67;79.41797;947.976;;;;
2020/02/07 04:56:45;;;;;;;7.8;4.7;;;;;;;-3.8;79.39258;947.9803;;;;
2020/02/07 04:59:16;;;;;;;10.6;5.6;;;;;;;-3.83;80.14844;947.9313;;;;
2020/02/07 05:01:50;;;;;;;9.6;5.5;;;;;;;-3.82;80.07324;947.9255;;;;
2020/02/07 05:09:31;;;;;;;6.9;3.5;;;;;;;-3.26;78.88672;947.9019;;;;
2020/02/07 05:12:15;;;;;;;6.3;3.6;;;;;;;-3.26;78.69922;947.8667;;;;
2020/02/07 05:14:25;;;;;;;7.3;4.7;;;;;;;-3.09;78.67578;947.8702;;;;
2020/02/07 05:17:21;;;;;;;8.1;4.3;;;;;;;-3.01;78.49219;947.8326;;;;
2020/02/07 05:19:10;;;;;;;9.1;4.6;;;;;;;-2.93;78.35254;947.8884;;;;
2020/02/07 05:21:42;;;;;;;15.1;6.3;;;;;;;-2.97;78.30176;947.8512;;;;
2020/02/07 05:24:17;;;;;;;14.1;6.4;;;;;;;-2.93;77.7334;947.9135;;;;
2020/02/07 05:27:11;;;;;;;21.6;9.9;;;;;;;-3.12;77.88574;947.9484;;;;
2020/02/07 05:29:47;;;;;;;44.4;21.4;;;;;;;-3.59;79.13477;947.9661;;;;
2020/02/07 05:32:22;;;;;;;42;21.5;;;;;;;-3.48;78.82422;947.9825;;;;
2020/02/07 05:34:54;;;;;;;19.2;10;;;;;;;-3.7;79.28906;947.9852;;;;
2020/02/07 05:37:30;;;;;;;18.4;9.9;;;;;;;-3.78;79.47461;948.0793;;;;
2020/02/07 05:40:03;;;;;;;17.6;11.4;;;;;;;-3.98;80.57129;948.103;;;;
2020/02/07 05:42:28;;;;;;;16.6;9.6;;;;;;;-4.15;81.10254;948.0744;;;;
2020/02/07 05:45:04;;;;;;;12.2;6.6;;;;;;;-4.23;81.70313;948.1195;;;;
2020/02/07 05:47:32;;;;;;;10.8;5.9;;;;;;;-4.15;81.79785;948.0754;;;;
2020/02/07 05:50:02;;;;;;;10;5.4;;;;;;;-4.04;81.39941;948.2026;;;;
2020/02/07 05:52:42;;;;;;;8.8;5.6;;;;;;;-4.03;81.02637;948.1401;;;;
2020/02/07 05:55:09;;;;;;;11.9;6.1;;;;;;;-3.95;80.77734;948.1624;;;;
2020/02/07 05:57:35;;;;;;;8.7;5.5;;;;;;;-3.96;80.52148;948.009;;;;
2020/02/07 06:00:09;;;;;;;9.8;5.5;;;;;;;-3.87;80.19824;948.1003;;;;
2020/02/07 06:02:41;;;;;;;13.3;5.5;;;;;;;-3.9;79.87207;948.1103;;;;
2020/02/07 06:05:19;;;;;;;9.3;5.6;;;;;;;-3.9;80.33301;948.0524;;;;
2020/02/07 06:07:47;;;;;;;11.4;5.9;;;;;;;-3.96;79.82617;948.0709;;;;
2020/02/07 06:10:20;;;;;;;8.9;5.4;;;;;;;-4.01;79.92676;948.0359;;;;
2020/02/07 06:13:10;;;;;;;9.2;5;;;;;;;-4.03;80.1875;948.0084;;;;
2020/02/07 06:15:48;;;;;;;8.4;5;;;;;;;-4.01;80.45605;948.0126;;;;
2020/02/07 06:18:13;;;;;;;9.1;4.9;;;;;;;-3.97;80.50879;948.0114;;;;
2020/02/07 06:20:44;;;;;;;9.6;5.4;;;;;;;-3.92;80.29883;948.019;;;;
2020/02/07 06:23:12;;;;;;;8.2;5.3;;;;;;;-3.95;80.98535;947.9758;;;;
2020/02/07 06:25:55;;;;;;;8.3;5.7;;;;;;;-3.78;80.41309;947.9337;;;;
2020/02/07 06:28:28;;;;;;;11;6.5;;;;;;;-3.91;80.65137;947.9261;;;;
2020/02/07 06:30:58;;;;;;;9.4;6.5;;;;;;;-4.05;81.74121;947.9902;;;;
2020/02/07 06:33:29;;;;;;;8.6;5.9;;;;;;;-4.02;82.22168;948.0056;;;;
2020/02/07 06:36:09;;;;;;;8.3;5.9;;;;;;;-3.85;81.66797;948.0025;;;;
2020/02/07 06:38:27;;;;;;;10.3;6.1;;;;;;;-3.86;81.08203;947.9772;;;;
2020/02/07 06:40:57;;;;;;;7.5;5.2;;;;;;;-3.94;81.12109;947.9995;;;;
2020/02/07 06:43:27;;;;;;;8.6;5.4;;;;;;;-3.93;81.49805;947.9078;;;;
2020/02/07 06:46:02;;;;;;;9.9;5.8;;;;;;;-3.84;81.32813;947.9286;;;;
2020/02/07 06:48:33;;;;;;;11.8;7;;;;;;;-3.73;80.83008;947.965;;;;
2020/02/07 06:50:59;;;;;;;9.8;6.3;;;;;;;-3.7;81.56543;947.9363;;;;
2020/02/07 06:53:29;;;;;;;11.1;6.8;;;;;;;-3.77;81.50586;947.8479;;;;
2020/02/07 06:55:59;;;;;;;10.9;7.2;;;;;;;-3.71;81.6416;947.8337;;;;
2020/02/07 06:58:33;;;;;;;13.4;8.6;;;;;;;-3.52;80.94727;947.8092;;;;
2020/02/07 07:01:03;;;;;;;14.2;8.5;;;;;;;-3.48;80.48145;947.941;;;;
2020/02/07 07:03:34;;;;;;;15.1;9.5;;;;;;;-3.47;80.7041;947.9309;;;;
2020/02/07 07:06:13;;;;;;;53.3;12.2;;;;;;;-3.33;80.94141;947.9116;;;;
2020/02/07 07:08:40;;;;;;;17.6;10.5;;;;;;;-3.24;80.65918;947.9144;;;;
2020/02/07 07:11:11;;;;;;;23.8;13.5;;;;;;;-3.09;79.41699;947.8889;;;;
2020/02/07 07:13:43;;;;;;;22.3;13.9;;;;;;;-2.98;78.59668;947.8909;;;;
2020/02/07 07:16:14;;;;;;;21.4;13.3;;;;;;;-2.69;80.125;947.7963;;;;
2020/02/07 07:18:38;;;;;;;20.4;11.8;;;;;;;-2.27;77.57715;947.9017;;;;
2020/02/07 07:21:06;;;;;;;16;10.4;;;;;;;-1.95;76.36328;947.7924;;;;
2020/02/07 07:23:35;;;;;;;17.8;11.3;;;;;;;-1.49;73.53711;947.7167;;;;
2020/02/07 07:26:05;;;;;;;19.1;15.7;;;;;;;-0.84;70.59375;947.8084;;;;
2020/02/07 07:28:38;;;;;;;20.7;14.9;;;;;;;-0.42;68.78418;947.8219;;;;
2020/02/07 07:31:10;;;;;;;26.8;16.8;;;;;;;-0.01;67.21289;947.8382;;;;
2020/02/07 07:33:42;;;;;;;24.5;17.1;;;;;;;0.54;64.90332;947.7678;;;;
2020/02/07 07:36:12;;;;;;;28.6;17.7;;;;;;;0.68;63.41895;947.7715;;;;
2020/02/07 07:38:47;;;;;;;18.7;12.3;;;;;;;0.8;63.13477;947.6915;;;;
2020/02/07 07:41:17;;;;;;;20.6;10.6;;;;;;;0.69;63.35449;947.5693;;;;
2020/02/07 07:43:44;;;;;;;11.5;7.6;;;;;;;0.48;63.01953;947.591;;;;
2020/02/07 07:46:14;;;;;;;12.9;7.7;;;;;;;0.52;63.41699;947.5233;;;;
2020/02/07 07:48:45;;;;;;;14;8.1;;;;;;;0.84;63.55371;947.5328;;;;
2020/02/07 07:51:22;;;;;;;12.9;9.1;;;;;;;1.36;61.69922;947.4368;;;;
2020/02/07 07:53:49;;;;;;;13.3;8.4;;;;;;;1.94;60.26074;947.4344;;;;
2020/02/07 07:56:17;;;;;;;17.1;10.5;;;;;;;2.77;57.63184;947.4621;;;;
2020/02/07 07:58:47;;;;;;;15.6;11.1;;;;;;;2.79;56.16602;947.5137;;;;
2020/02/07 08:01:20;;;;;;;21;12.9;;;;;;;3.07;55.23828;947.4961;;;;
2020/02/07 08:03:56;;;;;;;19.5;12;;;;;;;3.41;53.58691;947.4629;;;;
2020/02/07 08:06:24;;;;;;;18.7;11.5;;;;;;;4.11;52.31445;947.4141;;;;
2020/02/07 08:08:56;;;;;;;13.9;8.9;;;;;;;5.01;49.73047;947.3731;;;;
2020/02/07 08:11:29;;;;;;;16.5;9.7;;;;;;;6.38;46.56543;947.3525;;;;
2020/02/07 08:14:13;;;;;;;19.2;11.1;;;;;;;6.9;44.86816;947.3727;;;;
2020/02/07 08:16:47;;;;;;;17.4;10.1;;;;;;;7.85;41.66504;947.3123;;;;
2020/02/07 08:19:19;;;;;;;17.2;10.2;;;;;;;7.61;42.24219;947.3572;;;;
2020/02/07 08:21:48;;;;;;;8.9;5.6;;;;;;;8.29;40.48145;947.3212;;;;
2020/02/07 08:24:16;;;;;;;8.1;4.4;;;;;;;7.76;41.03125;947.2186;;;;
2020/02/07 08:26:53;;;;;;;8.4;5.4;;;;;;;7.18;41.84961;947.3351;;;;
2020/02/07 08:29:27;;;;;;;10.6;6.6;;;;;;;7.06;42.8125;947.3329;;;;
2020/02/07 08:31:55;;;;;;;10.2;6.6;;;;;;;7.51;42.28906;947.3016;;;;
2020/02/07 08:34:29;;;;;;;12.1;7;;;;;;;8.86;39.8291;947.241;;;;
2020/02/07 08:36:55;;;;;;;13.6;8.9;;;;;;;8.9;38.97949;947.193;;;;
2020/02/07 08:39:27;;;;;;;14.3;7.8;;;;;;;8.6;39.20313;947.137;;;;
2020/02/07 08:41:57;;;;;;;18.7;10.2;;;;;;;8.19;40.17578;947.0543;;;;
2020/02/07 08:44:27;;;;;;;11.6;7.4;;;;;;;8.17;39.9707;947.1783;;;;
2020/02/07 08:50:03;;;;;;;4.6;2.8;;;;;;;6.87;42.05664;947.1626;;;;
2020/02/07 08:52:31;;;;;;;5.9;3.4;;;;;;;7.43;41.41992;947.1205;;;;
2020/02/07 08:54:58;;;;;;;10.6;6.1;;;;;;;7.16;42.3125;947.1213;;;;
2020/02/07 08:57:21;;;;;;;13.3;6.2;;;;;;;6.88;44.0498;947.1572;;;;
2020/02/07 08:59:55;;;;;;;7;4.3;;;;;;;6.13;44.62793;947.0797;;;;
2020/02/07 09:02:17;;;;;;;10.5;4.4;;;;;;;5.43;46.24805;947.0991;;;;
2020/02/07 09:04:42;;;;;;;5.9;4;;;;;;;4.6;49.0752;947.0815;;;;
2020/02/07 09:07:19;;;;;;;5.9;3.6;;;;;;;3.8;51.6123;947.1463;;;;
2020/02/07 09:09:51;;;;;;;7.4;4;;;;;;;3.39;53.68457;947.0734;;;;
2020/02/07 09:12:27;;;;;;;10.4;5.3;;;;;;;2.88;55.68457;947.131;;;;
2020/02/07 09:18:25;;;;;;;17.7;11.3;;;;;;;2.61;56.75977;947.093;;;;
2020/02/07 09:20:54;;;;;;;201.2;167.6;;;;;;;2.52;57.17188;947.0334;;;;
2020/02/07 09:23:02;;;;;;;7;4.6;;;;;;;2.61;56.55762;947.0134;;;;
2020/02/07 09:25:22;;;;;;;7.8;3.6;;;;;;;2.7;56.5127;946.9843;;;;
2020/02/07 09:27:55;;;;;;;10.8;8.8;;;;;;;2.65;56.52734;946.9973;;;;
2020/02/07 09:30:23;;;;;;;286.2;189.6;;;;;;;2.56;56.60645;946.9422;;;;
2020/02/07 09:32:48;;;;;;;137.2;107.4;;;;;;;2.59;57.6416;946.9579;;;;
2020/02/07 09:35:17;;;;;;;15.9;8.8;;;;;;;2.72;56.41406;946.9957;;;;
2020/02/07 09:37:39;;;;;;;482.4;272.8;;;;;;;2.81;55.44043;946.9323;;;;
2020/02/07 09:40:07;;;;;;;8;3.5;;;;;;;2.91;55.65527;946.8787;;;;
2020/02/07 09:42:35;;;;;;;90.9;53.2;;;;;;;3.19;54.31152;946.8272;;;;
2020/02/07 09:45:10;;;;;;;7.8;2.9;;;;;;;3.33;54.82324;946.8108;;;;
2020/02/07 09:47:41;;;;;;;8;2.4;;;;;;;3.44;53.40039;946.8333;;;;
2020/02/07 09:50:13;;;;;;;6.4;2.3;;;;;;;3.52;53.3877;946.8144;;;;
2020/02/07 09:52:43;;;;;;;7;3.2;;;;;;;3.64;53.19922;946.8441;;;;
2020/02/07 09:55:10;;;;;;;6.7;2.9;;;;;;;3.65;53.05566;946.7744;;;;
2020/02/07 09:58:22;;;;;;;16.8;5.6;;;;;;;3.92;51.73926;946.7089;;;;
2020/02/07 10:01:11;;;;;;;14.7;3.6;;;;;;;4.32;51.5293;946.6687;;;;
2020/02/07 10:03:26;;;;;;;34.8;19.9;;;;;;;4.42;51.55273;946.7004;;;;
2020/02/07 10:06:02;;;;;;;134.3;75.8;;;;;;;4.59;50.74023;946.67;;;;
2020/02/07 10:08:22;;;;;;;402.2;254.2;;;;;;;5.01;49.2002;946.6258;;;;
2020/02/07 10:10:53;;;;;;;16.6;7.8;;;;;;;5.39;47.7998;946.6099;;;;
2020/02/07 10:13:18;;;;;;;101.2;62.9;;;;;;;5.63;47.12793;946.6577;;;;
2020/02/07 10:15:49;;;;;;;21.3;9.5;;;;;;;6.21;47.40723;946.642;;;;
2020/02/07 10:18:15;;;;;;;23.3;4.2;;;;;;;6.75;45.24805;946.647;;;;
2020/02/07 10:21:00;;;;;;;6.9;2.2;;;;;;;6.81;44.38184;946.5867;;;;
2020/02/07 10:23:30;;;;;;;26.5;6.2;;;;;;;6.5;46.20605;946.5656;;;;
2020/02/07 10:26:04;;;;;;;18.6;5.4;;;;;;;6.16;46.7002;946.5723;;;;
2020/02/07 10:28:44;;;;;;;76.9;48.8;;;;;;;5.55;48.23633;946.5285;;;;
2020/02/07 10:31:10;;;;;;;31.2;14.8;;;;;;;6.3;47.9375;946.4428;;;;
2020/02/07 10:33:43;;;;;;;12.7;6.2;;;;;;;6.86;44.5459;946.4677;;;;
2020/02/07 10:36:37;;;;;;;4;1.6;;;;;;;7.54;44.08398;946.3786;;;;
2020/02/07 10:39:09;;;;;;;2.8;1.3;;;;;;;8.17;41.11621;946.3276;;;;
2020/02/07 10:41:43;;;;;;;10.7;2.3;;;;;;;8.57;41.54102;946.3137;;;;
2020/02/07 10:44:19;;;;;;;6.8;1.5;;;;;;;8.36;41.04395;946.35;;;;
2020/02/07 10:46:34;;;;;;;1.9;1.2;;;;;;;8.1;41.20117;946.3262;;;;
2020/02/07 10:49:02;;;;;;;2.5;1.5;;;;;;;7.77;42.32617;946.2684;;;;
2020/02/07 10:51:39;;;;;;;2;1.3;;;;;;;7.53;42.13281;946.2363;;;;
2020/02/07 10:54:17;;;;;;;4.4;1.4;;;;;;;7.4;43.13965;946.2498;;;;
2020/02/07 10:56:36;;;;;;;2.4;1.2;;;;;;;7.25;44.67773;946.1791;;;;
2020/02/07 10:59:11;;;;;;;4.5;1.2;;;;;;;6.8;44.82227;946.1677;;;;
2020/02/07 11:02:02;;;;;;;2.6;1.5;;;;;;;6.63;44.81543;946.133;;;;
2020/02/07 11:04:36;;;;;;;3.3;1.3;;;;;;;6.73;45.5293;946.0735;;;;
2020/02/07 11:06:59;;;;;;;8.8;2.5;;;;;;;6.48;48.34082;946.0553;;;;
2020/02/07 11:09:33;;;;;;;6.4;2.5;;;;;;;6.44;48.57422;946.0158;;;;
2020/02/07 11:12:01;;;;;;;6.9;2.4;;;;;;;6.44;48.15625;945.905;;;;
2020/02/07 11:15:00;;;;;;;6.3;2.2;;;;;;;6.44;47.60156;945.867;;;;
2020/02/07 11:17:31;;;;;;;5.3;2.5;;;;;;;6.46;47.53613;945.8439;;;;
2020/02/07 11:20:00;;;;;;;7.3;2.5;;;;;;;6.55;47.35352;945.7864;;;;
2020/02/07 11:23:03;;;;;;;6.6;2.7;;;;;;;6.56;47.25293;945.7679;;;;
2020/02/07 11:25:28;;;;;;;6.9;2.7;;;;;;;6.22;47.70117;945.6505;;;;
2020/02/07 11:27:54;;;;;;;9.5;2.6;;;;;;;6.37;47.52441;945.6102;;;;
2020/02/07 11:31:19;;;;;;;4.9;2.3;;;;;;;6.59;48.30762;945.6423;;;;
2020/02/07 11:34:21;;;;;;;6.5;2.4;;;;;;;6.81;48.28711;945.4469;;;;
2020/02/07 11:49:54;;;;;;;4.3;2.1;;;;;;;8.17;44.9209;945.2639;;;;
2020/02/07 11:52:23;;;;;;;7.4;2.6;;;;;;;8.55;43.61914;945.2076;;;;
2020/02/07 11:54:45;;;;;;;6.7;2.7;;;;;;;9.08;42.4668;945.2108;;;;
2020/02/07 11:57:09;;;;;;;5.8;2.6;;;;;;;9.92;40.55469;945.199;;;;
2020/02/07 11:59:38;;;;;;;6.2;2.8;;;;;;;10.32;39.92969;945.1236;;;;
2020/02/07 12:08:00;;;;;;;4.6;2;;;;;;;15.68;29.50684;944.9081;;;;
2020/02/07 12:10:05;;;;;;;5.5;2.1;;;;;;;17.99;25.59766;944.8166;;;;
2020/02/07 12:12:26;;;;;;;3.2;1.8;;;;;;;19.51;24.08887;944.7856;;;;
2020/02/07 12:16:27;;;;;;;5;2.4;;;;;;;21.21;21.86621;944.7542;;;;
2020/02/07 12:18:19;;;;;;;3.6;2.1;;;;;;;22.33;20.2793;944.736;;;;
2020/02/07 12:19:56;;;;;;;4.1;1.7;;;;;;;23.36;19.08008;944.6716;;;;
2020/02/07 12:25:03;;;;;;;3.9;1.6;;;;;;;24.72;17.53418;944.6367;;;;
2020/02/07 12:41:04;;;;;;;4.2;1.7;;;;;;;27.43;14.60352;944.4811;;;;
2020/02/07 12:44:08;;;;;;;4.3;1.7;;;;;;;27.04;15.1123;944.5402;;;;
2020/02/07 12:53:50;;;;;;;4.6;1.6;;;;;;;27.63;14.66992;944.2957;;;;
2020/02/07 12:56:13;;;;;;;3.3;1.7;;;;;;;27.88;14.60645;944.2792;;;;
2020/02/07 12:58:36;;;;;;;3.1;1.4;;;;;;;27.63;15.33398;944.222;;;;
2020/02/07 13:01:11;;;;;;;4.8;1.5;;;;;;;27.05;15.52832;944.2336;;;;
2020/02/07 13:11:12;;;;;;;2.1;1.3;;;;;;;26.44;15.98047;944.15;;;;
2020/02/07 13:14:02;;;;;;;3.1;1.3;;;;;;;26.48;15.55566;944.1677;;;;
2020/02/07 13:21:12;;;;;;;3.1;1.4;;;;;;;25.86;16.29102;944.1575;;;;
2020/02/07 13:23:46;;;;;;;2.5;1.4;;;;;;;25.09;17.24219;944.1181;;;;
2020/02/07 13:26:29;;;;;;;2.6;1.4;;;;;;;23.73;18.1543;944.1629;;;;
2020/02/07 13:35:17;;;;;;;3.4;1.5;;;;;;;24.69;18.00488;944.0977;;;;
2020/02/07 13:37:59;;;;;;;2.5;1.5;;;;;;;24.1;18.38184;944.0901;;;;
2020/02/07 13:40:44;;;;;;;4.3;1.7;;;;;;;24.78;17.97363;944.1189;;;;
2020/02/07 13:45:17;;;;;;;3.3;1.5;;;;;;;25.18;17.83594;944.0642;;;;
2020/02/07 13:50:32;;;;;;;5;1.5;;;;;;;23.73;18.79004;944.0553;;;;
2020/02/07 13:52:56;;;;;;;3.8;1.8;;;;;;;22.77;19.40723;944.101;;;;
2020/02/07 13:55:02;;;;;;;2.9;1.8;;;;;;;23.24;19.70996;944.039;;;;
2020/02/07 13:57:20;;;;;;;4.2;2;;;;;;;23.52;19.2627;943.9721;;;;
2020/02/07 14:02:16;;;;;;;3.4;1.5;;;;;;;23.73;19.10742;944.0652;;;;
2020/02/07 14:04:50;;;;;;;3.2;1.6;;;;;;;23.71;19.43555;944.0961;;;;
2020/02/07 14:09:43;;;;;;;3.9;1.9;;;;;;;23.92;18.80957;943.9625;;;;
2020/02/07 14:12:22;;;;;;;3.5;1.5;;;;;;;23.06;19.6543;944.0036;;;;
2020/02/07 14:17:27;;;;;;;3.7;1.6;;;;;;;22.81;19.74902;944.0505;;;;
2020/02/07 14:20:52;;;;;;;2.3;1.6;;;;;;;23.73;18.625;944.0133;;;;
2020/02/07 14:24:47;;;;;;;3.6;1.8;;;;;;;23.76;18.64941;944.0058;;;;
2020/02/07 14:25:56;;;;;;;3.9;1.6;;;;;;;22.73;19.61621;944.0269;;;;
2020/02/07 14:29:15;;;;;;;3.1;1.5;;;;;;;22.97;19.09863;944.0092;;;;
2020/02/07 14:30:33;;;;;;;4.6;1.8;;;;;;;22.81;19.56152;944.0212;;;;
2020/02/07 14:38:06;;;;;;;3.8;1.7;;;;;;;22.7;19.43945;944.0033;;;;
2020/02/07 14:45:57;;;;;;;3.4;1.5;;;;;;;21.43;20.58887;943.9885;;;;
2020/02/07 14:50:36;;;;;;;3.1;1.7;;;;;;;20.65;21.17188;943.9409;;;;
2020/02/07 14:53:05;;;;;;;3.8;1.8;;;;;;;20.26;21.29395;943.8741;;;;
2020/02/07 14:56:07;;;;;;;4.5;1.9;;;;;;;19.79;22.09863;943.9907;;;;
2020/02/07 14:58:12;;;;;;;2.4;1.8;;;;;;;19.18;22.91797;943.9272;;;;
2020/02/07 15:01:00;;;;;;;2.6;1.7;;;;;;;19.43;22.78027;943.9822;;;;
2020/02/07 15:02:55;;;;;;;4.7;1.5;;;;;;;19.27;23.02832;943.9714;;;;
2020/02/07 15:11:13;;;;;;;3.8;1.7;;;;;;;19.13;22.54395;943.9973;;;;
2020/02/07 15:13:06;;;;;;;5.1;2.5;;;;;;;18.91;23.77734;943.9695;;;;
2020/02/07 15:15:37;;;;;;;8.3;2.5;;;;;;;18.62;24.51758;943.9731;;;;
2020/02/07 15:25:32;;;;;;;8.8;4.2;;;;;;;14.59;29.99805;944.0009;;;;
2020/02/07 15:27:52;;;;;;;11.3;5.4;;;;;;;12.8;34.75293;944.0433;;;;
2020/02/07 15:30:25;;;;;;;12;5.8;;;;;;;11.6;36.96973;943.9881;;;;
2020/02/07 15:32:51;;;;;;;11.3;4;;;;;;;10.49;41.15527;944.0797;;;;
2020/02/07 15:35:50;;;;;;;26.1;17;;;;;;;9.93;40.82813;944.1547;;;;
2020/02/07 15:40:45;;;;;;;38.7;20.8;;;;;;;8.81;46.48828;944.1957;;;;
2020/02/07 15:43:22;;;;;;;45;31.6;;;;;;;8.12;47.66309;944.2464;;;;
2020/02/07 15:45:34;;;;;;;29.1;19;;;;;;;7.67;48.49805;944.274;;;;
2020/02/07 15:50:48;;;;;;;16.5;9.7;;;;;;;6.93;52.9209;944.1705;;;;
2020/02/07 15:53:09;;;;;;;11;5.2;;;;;;;6.66;54.42676;944.2122;;;;
2020/02/07 15:56:59;;;;;;;9.2;4.2;;;;;;;6.35;55.06543;944.3267;;;;
2020/02/07 16:00:49;;;;;;;14.8;7.2;;;;;;;6.13;56.74316;944.343;;;;
2020/02/07 16:03:01;;;;;;;11.3;5.6;;;;;;;6.03;56.79785;944.3024;;;;
2020/02/07 16:05:58;;;;;;;7.9;2.9;;;;;;;5.88;57.19629;944.3123;;;;
2020/02/07 16:11:15;;;;;;;7.1;3.2;;;;;;;5.59;56.14258;944.3894;;;;
2020/02/07 16:13:24;;;;;;;6.7;3.1;;;;;;;5.55;56.64453;944.3752;;;;
2020/02/07 16:20:42;;;;;;;11.2;6.3;;;;;;;5.17;57.94727;944.4143;;;;
2020/02/07 16:23:15;;;;;;;14.1;9.2;;;;;;;5.2;57.16113;944.3997;;;;
2020/02/07 16:26:17;;;;;;;14;9.6;;;;;;;5.21;57.78223;944.4281;;;;
2020/02/07 16:28:12;;;;;;;14.1;10.1;;;;;;;5.15;58.19141;944.471;;;;
2020/02/07 16:33:26;;;;;;;16.6;10.1;;;;;;;5.01;59.88574;944.4033;;;;
2020/02/07 16:36:18;;;;;;;18;9.5;;;;;;;4.81;61.91016;944.4297;;;;
2020/02/07 16:40:51;;;;;;;7.5;4.3;;;;;;;4.54;61.43164;944.426;;;;
2020/02/07 16:45:30;;;;;;;22.2;13.4;;;;;;;4.28;62.74316;944.4933;;;;
2020/02/07 16:50:48;;;;;;;23.3;16;;;;;;;4.22;63.81543;944.4988;;;;
2020/02/07 17:00:25;;;;;;;13.8;9.5;;;;;;;4.11;64.65332;944.5212;;;;
2020/02/07 17:06:15;;;;;;;25.1;14.9;;;;;;;3.9;65.22949;944.6182;;;;
2020/02/07 17:10:21;;;;;;;38.3;21.7;;;;;;;3.54;64.8584;944.5876;;;;
2020/02/07 17:13:01;;;;;;;37;22;;;;;;;3.42;65.58301;944.5289;;;;
2020/02/07 17:15:37;;;;;;;35.2;21.7;;;;;;;3.38;65.91211;944.6125;;;;
2020/02/07 17:18:08;;;;;;;31.7;20.4;;;;;;;3.25;66.05957;944.6243;;;;
2020/02/07 17:20:31;;;;;;;45.9;25.8;;;;;;;3.15;66.49316;944.5275;;;;
2020/02/07 17:43:44;;;;;;;24.3;16.6;;;;;;;1.74;71.65332;944.6769;;;;
2020/02/07 17:46:28;;;;;;;25.2;17.3;;;;;;;1.74;71.59766;944.6916;;;;
2020/02/07 17:51:06;;;;;;;26.8;18.8;;;;;;;2.04;70.47266;944.6559;;;;
2020/02/07 17:56:32;;;;;;;27.3;18;;;;;;;2.04;70.77441;944.7668;;;;
2020/02/07 18:01:18;;;;;;;25.7;18;;;;;;;2.04;70.72949;944.7731;;;;
2020/02/07 18:03:42;;;;;;;25.9;17.4;;;;;;;1.95;71.55371;944.7414;;;;
2020/02/07 18:06:34;;;;;;;24.1;17;;;;;;;1.94;72.01172;944.6789;;;;
2020/02/07 18:11:53;;;;;;;25.1;16.8;;;;;;;1.81;72.66113;944.6133;;;;
2020/02/07 18:22:00;;;;;;;16.7;11.3;;;;;;;1.79;72.50098;944.6404;;;;
2020/02/07 18:24:59;;;;;;;13.1;8.6;;;;;;;1.74;72.57227;944.6369;;;;
2020/02/07 18:26:57;;;;;;;9.5;6.7;;;;;;;1.67;72.41309;944.6395;;;;
2020/02/07 18:29:14;;;;;;;11;7.4;;;;;;;1.64;72.6543;944.6213;;;;
2020/02/07 18:31:55;;;;;;;10.5;7.5;;;;;;;1.62;72.75195;944.5912;;;;
2020/02/07 18:34:09;;;;;;;11.7;8.2;;;;;;;1.58;73.02344;944.6365;;;;
2020/02/07 18:36:48;;;;;;;14;10.2;;;;;;;1.52;72.91211;944.6194;;;;
2020/02/07 18:40:55;;;;;;;16.2;11.7;;;;;;;1.34;73.63086;944.5714;;;;
2020/02/07 18:44:33;;;;;;;17.3;11.9;;;;;;;1.24;73.8916;944.517;;;;
2020/02/07 18:47:33;;;;;;;24.6;15.2;;;;;;;1.23;73.98047;944.3661;;;;
2020/02/07 18:50:10;;;;;;;30.3;19.8;;;;;;;1.23;74.24707;944.39;;;;
2020/02/07 18:56:19;;;;;;;33.3;21.4;;;;;;;1.35;74.25879;944.3331;;;;
2020/02/07 19:10:47;;;;;;;55.6;33.1;;;;;;;0.75;75.21387;944.3325;;;;
2020/02/07 19:13:30;;;;;;;52.9;31.6;;;;;;;0.6;76.12402;944.2977;;;;
2020/02/07 19:26:12;;;;;;;36.3;24.4;;;;;;;0.4;75.66406;944.29;;;;
2020/02/07 19:29:04;;;;;;;27.7;18.4;;;;;;;0.38;75.41602;944.2441;;;;
2020/02/07 19:31:57;;;;;;;27.1;17.5;;;;;;;0.42;75.2998;944.2745;;;;
2020/02/07 19:41:27;;;;;;;31.5;20.1;;;;;;;0.42;74.54102;944.2623;;;;
2020/02/07 19:43:58;;;;;;;37.4;25.9;;;;;;;0.37;75.24512;944.2322;;;;
2020/02/07 19:46:34;;;;;;;32.2;22.5;;;;;;;0.29;75.91211;944.2332;;;;
2020/02/07 19:48:59;;;;;;;28.1;19.7;;;;;;;0.25;76.41504;944.2018;;;;